Terminal Aerodrome Forecast
Issued by NWS

Home | Current Version | Previous Version | Text Only | Print | Product List | Glossary On
Versions: 1 2 3 4 5 6 7 8 9 10 11 12 13 14 15
000
FTUS41 KPBZ 080531
TAFBVI
TAF
KBVI 080531Z 0806/0906 21006KT P6SM -RA BKN015 OVC025
     FM080900 29008KT P6SM -SHRA OVC015
     FM081100 33004KT 4SM BR OVC008
     FM081700 34005KT P6SM BKN025
     FM090200 28005KT 4SM BR OVC015
      AMD NOT SKED=

USA.gov is the U.S. government's official web portal to all federal, state and local government web resources and services.